Nearby METAR Reports

 

KMQY - Smyrna, Tennessee, USA
Distance from station: WNW 14mi, 22km
Updated: Sun, 05-Dec-2021 8:18am CST
Few Clouds
Few Clouds
 Wind from SE
Wind: SE 6 mph , 9 km/h
Temperature: 54°F , 12°C
Dew Point: 48°F , 9°C
Humidity: 82%
Barometer: 30.11 inHg , 1019.6 hPa
Clouds: Few Clouds
Visibility: 10 miles , 16 km
Cloud details: Few Clouds 700 ft
2021/12/05 14:18 KMQY 051418Z 14005KT 10SM FEW007 12/09 A3011 RMK AO2
KSYI - Shelbyville, Tennessee, USA
Distance from station: SSW 25mi, 40km
Updated: Sun, 05-Dec-2021 8:35am CST
Mist, Overcast
Mist, Overcast
 Wind from SSE
Wind: SSE 8 mph , 13 km/h
Temperature: 57°F , 14°C
Dew Point: 55°F , 13°C
Humidity: 94%
Barometer: 30.09 inHg , 1019 hPa
Summary: Mist
Clouds: Overcast
Visibility: 2 1/2 miles , 4 km
Cloud details: Overcast 200 ft
2021/12/05 14:35 KSYI 051435Z AUTO 16007KT 2 1/2SM BR OVC002 14/13 A3009 RMK A01
KBNA - Nashville, Tennessee, USA
Distance from station: NW 25mi, 41km
Updated: Sun, 05-Dec-2021 7:53am CST
Partly cloudy
Partly cloudy
 Wind from SSE
Wind: SSE 6 mph , 9 km/h
Temperature: 54°F , 12°C
Dew Point: 43°F , 6°C
Humidity: 67%
Barometer: 30.11 inHg , 1019.6 hPa
Clouds: Partly cloudy
Visibility: 10 miles , 16 km
Cloud details: Few Clouds 4000 ft
Partly cloudy 12000 ft
2021/12/05 13:53 KBNA 051353Z 16005KT 10SM FEW040 SCT120 12/06 A3011 RMK AO2 SLP193 T01220061
 
KRNC - Mcminnville, Tennessee, USA
Distance from station: ESE 30mi, 48km
Updated: Sun, 05-Dec-2021 8:35am CST
Overcast
Overcast
 Wind from calm
Wind: Calm
Temperature: 55°F , 13°C
Dew Point: 52°F , 11°C
Humidity: 88%
Barometer: 30.11 inHg , 1019.6 hPa
Clouds: Overcast
Visibility: 10 miles , 16 km
Cloud details: Overcast 3200 ft
2021/12/05 14:35 KRNC 051435Z AUTO 00000KT 10SM OVC032 13/11 A3011 RMK A01
KM33 - Gallatin, Tennessee, USA
Distance from station: N 33mi, 54km
Updated: Wed, 23-May-2018 7:55pm CDT
NOT Current
Clear
Clear
 Wind from calm
Wind: Calm
Temperature: 79°F , 26°C
Dew Point: 66°F , 19°C
Humidity: 65%
Barometer: 30.10 inHg , 1019.3 hPa
Clouds: Clear
Visibility: 10 miles , 16 km
2018/05/24 00:55 KM33 240055Z AUTO 00000KT 10SM CLR 26/19 A3010 RMK A01
KTHA - Tullahoma, Tennessee, USA
Distance from station: S 36mi, 59km
Updated: Sun, 05-Dec-2021 8:35am CST
Mist, Mostly cloudy
Mist, Mostly cloudy
 Wind from SSE
Wind: SSE 6 mph , 9 km/h
Temperature: 59°F , 15°C
Dew Point: 55°F , 13°C
Humidity: 88%
Barometer: 30.11 inHg , 1019.6 hPa
Summary: Mist
Clouds: Mostly cloudy
Visibility: 5 miles , 8 km
Cloud details: Partly cloudy 600 ft
Mostly cloudy 3500 ft
Mostly cloudy 9500 ft
2021/12/05 14:35 KTHA 051435Z AUTO 15005KT 5SM BR SCT006 BKN035 BKN095 15/13 A3011 RMK A01
 
KJWN - Nashv/Jc Tune, Tennessee, USA
Distance from station: WNW 37mi, 60km
Updated: Sun, 05-Dec-2021 8:50am CST
Mostly cloudy
Mostly cloudy
 Wind from E
Wind: E 6 mph , 9 km/h
Temperature: 54°F , 12°C
Dew Point: 43°F , 6°C
Humidity: 67%
Barometer: 30.06 inHg , 1017.9 hPa
Clouds: Mostly cloudy
Visibility: 10 miles , 16 km
Cloud details: Partly cloudy 1000 ft
Mostly cloudy 5500 ft
Mostly cloudy 12000 ft
2021/12/05 14:50 KJWN 051450Z 09005KT 10SM SCT010 BKN055 BKN120 12/06 A3006
KSRB - Sparta, Tennessee, USA
Distance from station: ENE 45mi, 72km
Updated: Sun, 05-Dec-2021 8:35am CST
Overcast
Overcast
 Wind from SSE
Wind: SSE 7 mph , 11 km/h
Temperature: 55°F , 13°C
Dew Point: 52°F , 11°C
Humidity: 88%
Barometer: 30.11 inHg , 1019.6 hPa
Clouds: Overcast
Visibility: 10 miles , 16 km
Cloud details: Mostly cloudy 3500 ft
Overcast 9500 ft
2021/12/05 14:35 KSRB 051435Z AUTO 16006KT 10SM BKN035 OVC095 13/11 A3011 RMK A01
K1M5 - Portland, Tennessee, USA
Distance from station: NNW 49mi, 78km
Updated: Sun, 05-Dec-2021 8:35am CST
Mostly cloudy
Mostly cloudy
 Wind from S
Wind: S 13 mph , 20 km/h
Temperature: 54°F , 12°C
Dew Point: 46°F , 8°C
Humidity: 77%
Barometer: 30.07 inHg , 1018.3 hPa
Clouds: Mostly cloudy
Visibility: 10 miles , 16 km
Cloud details: Mostly cloudy 6500 ft
2021/12/05 14:35 K1M5 051435Z AUTO 18011KT 10SM BKN065 12/08 A3007 RMK A01